Time;durP1;ratioP1;P1;durP2;ratioP2;P2;SDS_P1;SDS_P2;PMS_P1;PMS_P2;Temp;Humidity;BMP_temperature;BMP_pressure;BME280_temperature;BME280_humidity;BME280_pressure;Samples;Min_cycle;Max_cycle;Signal;HPM_P1;HPM_P2
2024/01/09 00:04:57;;;;;;;9.00;6.00;;;;;;;-10.23;100.00;100050.56;15288543;19;20414;-67
2024/01/09 00:10:25;;;;;;;8.80;6.27;;;;;;;-10.24;100.00;100043.63;15288607;19;20081;-67
2024/01/09 00:15:49;;;;;;;11.53;6.17;;;;;;;-10.26;100.00;100050.53;15289576;19;20033;-67
2024/01/09 00:21:14;;;;;;;9.63;6.10;;;;;;;-10.17;100.00;100051.50;15286556;19;20024;-65
2024/01/09 00:26:48;;;;;;;9.00;6.07;;;;;;;-10.15;100.00;100049.72;15291323;19;20039;-70
2024/01/09 00:32:13;;;;;;;9.03;6.13;;;;;;;-10.21;100.00;100061.00;15289809;19;20019;-66
2024/01/09 00:37:37;;;;;;;11.73;6.23;;;;;;;-10.25;100.00;100056.66;15291519;19;20018;-62
2024/01/09 00:43:11;;;;;;;8.57;5.70;;;;;;;-10.38;100.00;100067.03;15287113;19;20018;-64
2024/01/09 00:48:37;;;;;;;9.77;6.20;;;;;;;-10.42;100.00;100061.78;15292052;19;20017;-64
2024/01/09 00:54:01;;;;;;;9.00;6.03;;;;;;;-10.46;100.00;100053.06;15286277;19;20019;-65
2024/01/09 00:59:29;;;;;;;8.50;5.80;;;;;;;-10.52;100.00;100055.63;15283326;19;20014;-63
2024/01/09 01:04:53;;;;;;;8.77;6.13;;;;;;;-10.54;100.00;100068.66;15280611;19;20025;-66
2024/01/09 01:10:18;;;;;;;9.37;5.97;;;;;;;-10.54;100.00;100073.88;15280197;19;20022;-62
2024/01/09 01:15:45;;;;;;;10.00;6.70;;;;;;;-10.60;100.00;100068.59;15283263;19;20349;-63
2024/01/09 01:21:10;;;;;;;8.83;6.00;;;;;;;-10.65;100.00;100072.91;15282986;19;20366;-62
2024/01/09 01:26:35;;;;;;;7.97;5.67;;;;;;;-10.70;100.00;100080.66;15274630;19;20022;-66
2024/01/09 01:32:09;;;;;;;9.23;6.27;;;;;;;-10.74;100.00;100078.91;15285160;19;20018;-61
2024/01/09 01:37:33;;;;;;;8.40;5.97;;;;;;;-10.77;100.00;100083.22;15288324;19;20074;-66
2024/01/09 01:43:08;;;;;;;8.17;6.07;;;;;;;-10.80;100.00;100089.25;15284043;19;20039;-64
2024/01/09 01:48:38;;;;;;;9.67;6.60;;;;;;;-10.86;100.00;100082.25;15284760;19;20014;-62
2024/01/09 01:54:02;;;;;;;9.77;6.60;;;;;;;-10.89;100.00;100084.88;15287563;19;20031;-63
2024/01/09 01:59:27;;;;;;;8.17;6.10;;;;;;;-10.93;100.00;100083.06;15279874;19;20074;-62
2024/01/09 02:04:55;;;;;;;8.83;6.17;;;;;;;-10.97;100.00;100073.47;15281232;19;20093;-69
2024/01/09 02:10:21;;;;;;;10.07;6.67;;;;;;;-11.02;100.00;100067.38;15279558;19;20018;-58
2024/01/09 02:15:45;;;;;;;10.87;7.13;;;;;;;-11.03;100.00;100061.28;15282194;19;20567;-61
2024/01/09 02:21:13;;;;;;;11.73;6.57;;;;;;;-11.07;100.00;100051.72;15280671;19;20807;-60
2024/01/09 02:26:39;;;;;;;12.80;7.40;;;;;;;-11.09;100.00;100049.94;15287356;19;20022;-65
2024/01/09 02:32:13;;;;;;;9.30;6.60;;;;;;;-11.15;100.00;100043.84;15280029;19;20081;-60
2024/01/09 02:37:37;;;;;;;9.27;7.30;;;;;;;-11.19;100.00;100033.38;15282938;19;20021;-63
2024/01/09 02:43:03;;;;;;;9.77;6.73;;;;;;;-11.26;100.00;100050.66;15283754;19;20104;-65
2024/01/09 02:48:34;;;;;;;11.20;7.07;;;;;;;-11.28;100.00;100048.88;15288547;19;20043;-63
2024/01/09 02:54:08;;;;;;;11.53;7.33;;;;;;;-11.29;100.00;100053.22;15299196;19;20007;-62
2024/01/09 02:59:33;;;;;;;10.57;7.23;;;;;;;-11.24;100.00;100056.78;15297851;19;20026;-62
2024/01/09 03:05:00;;;;;;;10.50;7.37;;;;;;;-11.20;100.00;100057.66;15282601;19;20035;-61
2024/01/09 03:10:26;;;;;;;10.60;7.10;;;;;;;-11.28;100.00;100048.88;15282642;19;20026;-63
2024/01/09 03:15:51;;;;;;;10.43;7.30;;;;;;;-11.35;100.00;100047.97;15280509;19;20558;-62
2024/01/09 03:21:19;;;;;;;11.13;7.57;;;;;;;-11.40;100.00;100044.44;15280869;19;20424;-69
2024/01/09 03:26:43;;;;;;;11.03;7.40;;;;;;;-11.44;100.00;100034.84;15290013;19;20730;-62
2024/01/09 03:32:09;;;;;;;11.77;7.63;;;;;;;-11.47;100.00;100033.09;15293208;19;20018;-63
2024/01/09 03:37:36;;;;;;;10.60;7.23;;;;;;;-11.46;100.00;100030.50;15292196;19;20014;-62
2024/01/09 03:43:08;;;;;;;10.53;7.30;;;;;;;-11.42;100.00;100028.84;15293689;19;20046;-61
2024/01/09 03:48:33;;;;;;;10.57;7.43;;;;;;;-11.43;100.00;100028.81;15296094;19;20034;-59
2024/01/09 03:54:00;;;;;;;12.43;7.33;;;;;;;-11.47;100.00;100023.59;15295425;19;20022;-60
2024/01/09 03:59:25;;;;;;;12.27;8.03;;;;;;;-11.52;100.00;100012.25;15299496;19;20012;-58
2024/01/09 04:04:49;;;;;;;11.33;8.00;;;;;;;-11.55;100.00;100008.75;15294406;19;20082;-59
2024/01/09 04:10:17;;;;;;;12.87;8.30;;;;;;;-11.54;100.00;100011.34;15286845;19;20043;-60
2024/01/09 04:15:41;;;;;;;13.93;7.90;;;;;;;-11.53;100.00;100013.09;15289270;19;20025;-60
2024/01/09 04:21:07;;;;;;;12.57;8.07;;;;;;;-11.52;100.00;99999.25;15290488;19;20010;-65
2024/01/09 04:26:34;;;;;;;12.47;7.43;;;;;;;-11.54;100.00;100000.97;15295666;19;20093;-60
2024/01/09 04:31:59;;;;;;;14.03;8.47;;;;;;;-11.53;100.00;100005.31;15290610;19;20019;-64
2024/01/09 04:37:23;;;;;;;15.03;8.73;;;;;;;-11.55;100.00;100020.00;15292973;19;20042;-59
2024/01/09 04:42:51;;;;;;;13.80;8.10;;;;;;;-11.57;100.00;100019.13;15285796;19;20022;-59
2024/01/09 04:48:17;;;;;;;13.40;8.30;;;;;;;-11.67;100.00;100025.09;15290033;19;20011;-63
2024/01/09 04:53:42;;;;;;;12.83;8.03;;;;;;;-11.71;100.00;100026.78;15291156;19;20352;-61
2024/01/09 04:59:09;;;;;;;14.37;8.07;;;;;;;-11.72;100.00;100022.44;15294089;19;20751;-62
2024/01/09 05:04:34;;;;;;;13.60;8.10;;;;;;;-11.81;100.00;100018.00;15285064;19;20011;-58
2024/01/09 05:09:59;;;;;;;14.20;8.27;;;;;;;-11.78;100.00;100012.84;15286425;19;20010;-60
2024/01/09 05:15:27;;;;;;;11.90;8.10;;;;;;;-11.80;100.00;100026.69;15284915;19;20416;-61
2024/01/09 05:20:51;;;;;;;12.23;8.43;;;;;;;-11.80;100.00;100024.09;15286505;19;20078;-62
2024/01/09 05:26:16;;;;;;;12.97;8.53;;;;;;;-11.80;100.00;100029.28;15290058;19;20081;-60
2024/01/09 05:31:51;;;;;;;13.40;8.10;;;;;;;-11.81;100.00;100023.19;15285383;19;20022;-61
2024/01/09 05:37:16;;;;;;;14.33;9.13;;;;;;;-11.84;100.00;100028.38;15287475;19;20073;-60
2024/01/09 05:42:47;;;;;;;13.93;8.93;;;;;;;-11.85;100.00;100037.03;15288843;19;20029;-62
2024/01/09 05:48:15;;;;;;;13.97;9.07;;;;;;;-11.90;100.00;100043.03;15286888;19;20015;-61
2024/01/09 05:53:39;;;;;;;13.17;8.53;;;;;;;-11.93;100.00;100049.03;15287806;19;20351;-62
2024/01/09 05:59:06;;;;;;;12.83;8.87;;;;;;;-11.99;100.00;100049.88;15290849;19;20019;-64
2024/01/09 06:04:33;;;;;;;13.90;8.77;;;;;;;-12.08;100.00;100052.34;15284258;19;20341;-53
2024/01/09 06:09:58;;;;;;;14.40;8.87;;;;;;;-12.19;100.00;100054.81;15285141;19;20010;-54
2024/01/09 06:15:23;;;;;;;14.63;9.50;;;;;;;-12.25;100.00;100063.41;15288150;19;20018;-53
2024/01/09 06:20:51;;;;;;;12.30;9.00;;;;;;;-12.33;100.00;100066.72;15283419;19;20018;-57
2024/01/09 06:26:17;;;;;;;15.67;9.10;;;;;;;-12.37;100.00;100072.72;15288885;19;20010;-52
2024/01/09 06:31:44;;;;;;;15.47;9.50;;;;;;;-12.36;100.00;100074.47;15282069;19;20017;-52
2024/01/09 06:37:11;;;;;;;15.13;9.97;;;;;;;-12.33;100.00;100065.00;15289251;19;20029;-53
2024/01/09 06:42:42;;;;;;;14.53;9.10;;;;;;;-12.26;100.00;100073.75;15286392;19;20578;-54
2024/01/09 06:48:08;;;;;;;15.73;9.20;;;;;;;-12.17;100.00;100076.47;15286798;19;20022;-52
2024/01/09 06:53:35;;;;;;;16.23;10.87;;;;;;;-12.06;100.00;100083.56;15284805;19;20563;-54
2024/01/09 06:59:00;;;;;;;18.67;11.50;;;;;;;-11.94;100.00;100091.50;15282652;19;20014;-60
2024/01/09 07:04:24;;;;;;;22.73;13.67;;;;;;;-11.79;100.00;100088.22;15289157;19;20025;-61
2024/01/09 07:09:52;;;;;;;21.87;12.80;;;;;;;-11.61;100.00;100092.78;15293149;19;20469;-58
2024/01/09 07:15:18;;;;;;;20.73;13.30;;;;;;;-11.51;100.00;100079.03;15299848;19;20038;-59
2024/01/09 07:20:43;;;;;;;21.17;13.13;;;;;;;-11.41;100.00;100074.81;15290450;19;20015;-60
2024/01/09 07:26:11;;;;;;;25.23;14.50;;;;;;;-11.36;100.00;100088.72;15297702;19;20742;-60
2024/01/09 07:31:35;;;;;;;23.27;13.70;;;;;;;-11.32;100.00;100094.81;15295753;19;20022;-62
2024/01/09 07:36:59;;;;;;;24.73;13.77;;;;;;;-11.29;100.00;100089.66;15302581;19;20088;-62
2024/01/09 07:42:27;;;;;;;24.03;14.47;;;;;;;-11.26;100.00;100100.09;15300068;19;20015;-60
2024/01/09 07:48:03;;;;;;;24.43;14.33;;;;;;;-11.24;100.00;100105.31;15300467;19;20515;-60
2024/01/09 07:53:28;;;;;;;21.43;13.77;;;;;;;-11.19;100.00;100112.31;15295350;19;20018;-62
2024/01/09 07:58:56;;;;;;;21.53;14.40;;;;;;;-11.13;100.00;100111.50;15306814;19;20025;-62
2024/01/09 08:04:21;;;;;;;22.70;14.03;;;;;;;-11.02;100.00;100120.31;15304861;19;20014;-59
2024/01/09 08:09:46;;;;;;;23.43;13.83;;;;;;;-10.94;100.00;100122.97;15303152;19;20024;-60
2024/01/09 08:15:14;;;;;;;24.03;14.47;;;;;;;-10.88;100.00;100102.22;15276057;19;20042;-61
2024/01/09 08:20:38;;;;;;;22.03;13.33;;;;;;;-10.80;100.00;100106.63;15297640;19;20023;-58
2024/01/09 08:26:03;;;;;;;22.23;14.53;;;;;;;-10.77;100.00;100101.44;15293256;19;20073;-61
2024/01/09 08:31:30;;;;;;;22.80;13.90;;;;;;;-10.80;100.00;100093.59;15291962;19;20023;-61
2024/01/09 08:36:55;;;;;;;22.20;14.20;;;;;;;-10.89;100.00;100090.06;15295105;19;20366;-61
2024/01/09 08:42:19;;;;;;;26.57;15.77;;;;;;;-10.94;100.00;100107.38;15290912;19;20029;-60
2024/01/09 08:47:47;;;;;;;25.03;14.67;;;;;;;-10.91;100.00;100109.13;15292676;19;20018;-60
2024/01/09 08:53:12;;;;;;;23.27;14.50;;;;;;;-10.85;100.00;100120.47;15291388;19;20482;-60
2024/01/09 08:58:37;;;;;;;25.43;15.53;;;;;;;-10.71;100.00;100117.13;15287443;19;20015;-62
2024/01/09 09:04:05;;;;;;;28.37;15.70;;;;;;;-10.57;100.00;100118.13;15292377;19;20014;-63
2024/01/09 09:09:30;;;;;;;29.70;16.77;;;;;;;-10.46;100.00;100126.00;15291732;19;20503;-62
2024/01/09 09:14:54;;;;;;;23.80;14.77;;;;;;;-10.39;100.00;100122.59;15294867;19;20025;-61
2024/01/09 09:20:22;;;;;;;25.57;15.13;;;;;;;-10.36;100.00;100132.13;15294170;19;20035;-61
2024/01/09 09:25:48;;;;;;;24.60;15.10;;;;;;;-10.29;100.00;100131.31;15291097;19;20014;-62
2024/01/09 09:31:13;;;;;;;25.73;15.67;;;;;;;-10.19;100.00;100115.75;15287373;19;20078;-60
2024/01/09 09:36:40;;;;;;;23.70;14.87;;;;;;;-10.12;100.00;100122.75;15291790;19;20363;-60
2024/01/09 09:42:05;;;;;;;25.20;14.87;;;;;;;-10.06;100.00;100122.81;15289161;19;20018;-61
2024/01/09 09:47:31;;;;;;;25.67;16.13;;;;;;;-9.96;100.00;100114.16;15292665;19;20019;-63
2024/01/09 09:52:59;;;;;;;24.50;15.90;;;;;;;-9.83;100.00;100106.41;15291637;19;20357;-62
2024/01/09 09:58:23;;;;;;;25.07;15.63;;;;;;;-9.80;100.00;100101.19;15290235;19;20033;-61
2024/01/09 10:03:53;;;;;;;26.30;15.95;;;;;;;-9.69;100.00;100099.50;15280900;19;20368;-62
2024/01/09 10:09:23;;;;;;;30.08;17.52;;;;;;;-9.60;100.00;100083.03;15291511;19;20022;-61
2024/01/09 10:15:11;;;;;;;26.57;16.47;;;;;;;-9.48;100.00;100088.28;15293570;19;20017;-63
2024/01/09 10:20:37;;;;;;;28.15;17.70;;;;;;;-9.35;100.00;100089.19;15287740;19;20443;-62
2024/01/09 10:26:05;;;;;;;26.40;16.90;;;;;;;-9.27;100.00;100093.59;15283842;19;20096;-59
2024/01/09 10:31:30;;;;;;;28.08;17.33;;;;;;;-9.21;100.00;100088.38;15287910;19;20510;-60
2024/01/09 10:36:55;;;;;;;28.63;17.70;;;;;;;-9.12;100.00;100080.59;15298299;19;20018;-61
2024/01/09 10:42:23;;;;;;;27.70;17.05;;;;;;;-9.06;100.00;100071.88;15297308;19;20023;-58
2024/01/09 10:47:49;;;;;;;28.35;16.77;;;;;;;-9.01;100.00;100068.41;15305907;19;20022;-60
2024/01/09 10:53:15;;;;;;;26.90;16.77;;;;;;;-8.93;100.00;100072.75;15301880;19;20035;-63
2024/01/09 10:58:48;;;;;;;27.30;17.40;;;;;;;-8.87;100.00;100064.91;15303526;19;20015;-61
2024/01/09 11:04:12;;;;;;;27.50;16.98;;;;;;;-8.82;100.00;100063.19;15298362;19;20025;-63
2024/01/09 11:09:41;;;;;;;26.52;16.23;;;;;;;-8.75;100.00;100059.69;15298224;19;20488;-63
2024/01/09 11:15:15;;;;;;;31.52;16.90;;;;;;;-8.70;100.00;100051.88;15303902;19;20081;-60
2024/01/09 11:20:40;;;;;;;28.80;16.33;;;;;;;-8.64;100.00;100035.34;15303203;19;20014;-58
2024/01/09 11:26:05;;;;;;;28.75;16.92;;;;;;;-8.53;100.00;100033.59;15302899;19;20018;-58
2024/01/09 11:31:32;;;;;;;23.85;15.77;;;;;;;-8.42;100.00;100023.97;15297501;19;20010;-60
2024/01/09 11:37:00;;;;;;;22.58;15.57;;;;;;;-8.33;100.00;100025.66;15299904;19;20010;-60
2024/01/09 11:42:24;;;;;;;27.83;15.63;;;;;;;-8.18;100.00;100013.44;15290883;19;20031;-60
2024/01/09 11:47:53;;;;;;;25.63;16.67;;;;;;;-8.10;100.00;100002.06;15294424;19;20031;-61
2024/01/09 11:53:19;;;;;;;30.63;16.90;;;;;;;-8.01;100.00;100003.81;15296368;19;20014;-62
2024/01/09 11:58:45;;;;;;;23.00;15.27;;;;;;;-7.94;100.00;99984.56;15300144;19;20033;-60
2024/01/09 12:04:13;;;;;;;25.13;15.00;;;;;;;-7.92;100.00;99987.16;15281108;19;20373;-61
2024/01/09 12:09:38;;;;;;;23.67;16.08;;;;;;;-7.93;100.00;99978.47;15290713;19;20036;-61
2024/01/09 12:15:04;;;;;;;25.00;15.40;;;;;;;-7.85;100.00;99980.16;15280757;19;20780;-60
2024/01/09 12:20:32;;;;;;;28.95;15.98;;;;;;;-7.80;100.00;99978.41;15286037;19;20048;-61
2024/01/09 12:25:56;;;;;;;26.60;15.70;;;;;;;-7.85;100.00;99975.81;15288035;19;20018;-61
2024/01/09 12:31:26;;;;;;;29.08;16.52;;;;;;;-7.80;100.00;99958.34;15283915;19;20011;-61
2024/01/09 12:36:54;;;;;;;22.10;15.07;;;;;;;-7.64;100.00;99953.03;15287760;19;20472;-59
2024/01/09 12:42:27;;;;;;;25.65;15.57;;;;;;;-7.49;100.00;99959.91;15280564;19;20042;-62
2024/01/09 12:47:53;;;;;;;;;;;;;;;-7.50;100.00;99960.78;15296266;19;20025;-62
2024/01/09 12:53:21;;;;;;;25.27;15.82;;;;;;;-7.37;100.00;99958.97;15301245;19;20002;-60
2024/01/09 12:58:47;;;;;;;24.50;15.65;;;;;;;-7.33;100.00;99943.22;15295140;19;20350;-62
2024/01/09 13:04:11;;;;;;;26.15;16.50;;;;;;;-7.25;100.00;99960.63;15294752;19;20024;-62
2024/01/09 13:09:38;;;;;;;27.27;16.80;;;;;;;-7.05;100.00;99953.47;15299555;19;20486;-61
2024/01/09 13:15:03;;;;;;;23.85;16.13;;;;;;;-6.89;100.00;99951.59;15306669;19;20015;-62
2024/01/09 13:20:29;;;;;;;23.98;15.57;;;;;;;-6.70;100.00;99959.28;15294750;19;20018;-63
2024/01/09 13:26:07;;;;;;;21.70;18.33;;;;;;;-6.23;100.00;99949.16;15359324;19;20357;-61
2024/01/09 13:31:32;;;;;;;25.90;15.95;;;;;;;-6.36;100.00;99948.44;15359377;19;20481;-63
2024/01/09 13:36:57;;;;;;;24.10;15.32;;;;;;;-6.30;100.00;99953.63;14845578;19;9999590;-62
2024/01/09 13:42:25;;;;;;;25.17;14.45;;;;;;;-6.25;100.00;99949.19;15358672;19;20020;-62
2024/01/09 13:47:50;;;;;;;22.23;14.52;;;;;;;-6.32;100.00;99954.53;15360573;19;20078;-61
2024/01/09 13:53:15;;;;;;;21.00;13.90;;;;;;;-6.23;100.00;99950.03;15354213;19;20020;-61
2024/01/09 13:58:48;;;;;;;25.33;14.95;;;;;;;-6.12;100.00;99942.06;15363498;19;20504;-62
2024/01/09 14:04:15;;;;;;;20.00;13.38;;;;;;;-6.01;100.00;99947.16;15360606;19;20025;-55
2024/01/09 14:09:39;;;;;;;20.67;13.13;;;;;;;-5.96;100.00;99937.44;15361564;19;20025;-53
2024/01/09 14:15:10;;;;;;;21.58;13.98;;;;;;;-5.91;100.00;99940.00;15360532;19;20018;-52
2024/01/09 14:20:35;;;;;;;26.42;15.38;;;;;;;-5.95;100.00;99926.06;15357149;19;20025;-53
2024/01/09 14:26:07;;;;;;;21.90;14.93;;;;;;;-5.96;100.00;99933.94;15358059;19;20470;-52
2024/01/09 14:31:35;;;;;;;25.20;14.68;;;;;;;-6.00;100.00;99930.53;15337611;19;20085;-52
2024/01/09 14:37:00;;;;;;;22.80;14.18;;;;;;;-6.06;100.00;99928.00;15303978;19;20013;-53
2024/01/09 14:42:27;;;;;;;21.30;14.05;;;;;;;-6.16;100.00;99923.72;15298013;19;20019;-55
2024/01/09 14:47:54;;;;;;;24.63;14.88;;;;;;;-6.27;100.00;99927.34;15303021;19;20031;-56
2024/01/09 14:53:21;;;;;;;22.90;14.18;;;;;;;-6.30;100.00;99924.78;15293578;19;20014;-57
2024/01/09 14:58:45;;;;;;;22.45;14.68;;;;;;;-6.44;100.00;99931.94;15299750;19;20014;-54
2024/01/09 15:04:13;;;;;;;24.27;15.25;;;;;;;-6.68;100.00;99931.31;15295863;19;20013;-56
2024/01/09 15:09:37;;;;;;;26.67;16.40;;;;;;;-6.94;100.00;99923.72;15300283;19;20373;-55
2024/01/09 15:15:03;;;;;;;27.42;17.30;;;;;;;-7.22;100.00;99918.69;15301783;19;20480;-55
2024/01/09 15:20:30;;;;;;;26.25;16.40;;;;;;;-7.47;100.00;99914.53;15298590;19;20018;-53
2024/01/09 15:26:04;;;;;;;24.67;15.45;;;;;;;-7.68;100.00;99920.78;15288171;19;20355;-54
2024/01/09 15:31:29;;;;;;;25.08;16.50;;;;;;;-7.85;100.00;99920.88;15298649;19;20014;-56
2024/01/09 15:36:58;;;;;;;23.52;15.80;;;;;;;-7.98;100.00;99911.34;15300953;19;20086;-54
2024/01/09 15:42:24;;;;;;;24.20;14.82;;;;;;;-8.10;100.00;99913.16;15296722;19;20384;-53
2024/01/09 15:47:50;;;;;;;25.98;15.77;;;;;;;-8.20;100.00;99924.53;15289378;19;20605;-52
2024/01/09 15:53:18;;;;;;;25.73;15.85;;;;;;;-8.29;100.00;99924.59;15292070;19;20015;-50
2024/01/09 15:58:43;;;;;;;29.48;16.27;;;;;;;-8.39;100.00;99936.81;15290259;19;20082;-53
2024/01/09 16:04:11;;;;;;;27.10;16.65;;;;;;;-8.52;100.00;99942.09;15292633;19;20082;-50
2024/01/09 16:09:38;;;;;;;27.70;15.05;;;;;;;-8.60;100.00;99953.44;15293979;19;20073;-53
2024/01/09 16:15:03;;;;;;;25.60;16.45;;;;;;;-8.69;100.00;99946.47;15295237;19;20020;-53
2024/01/09 16:20:27;;;;;;;28.42;16.77;;;;;;;-8.74;100.00;99956.09;15292546;19;20014;-51
2024/01/09 16:26:01;;;;;;;28.45;16.40;;;;;;;-8.85;100.00;99951.75;15288415;19;20025;-55
2024/01/09 16:31:27;;;;;;;26.75;16.40;;;;;;;-8.90;100.00;99970.91;15287203;19;20086;-54
2024/01/09 16:36:52;;;;;;;27.90;16.73;;;;;;;-8.97;100.00;99977.88;15293440;19;20022;-53
2024/01/09 16:42:19;;;;;;;30.42;16.63;;;;;;;-9.06;100.00;99980.50;15291654;19;20014;-53
2024/01/09 16:47:43;;;;;;;30.15;18.83;;;;;;;-9.16;100.00;99974.38;15294503;19;20074;-54
2024/01/09 16:53:08;;;;;;;32.53;19.75;;;;;;;-9.27;100.00;99983.94;15289932;19;20025;-54
2024/01/09 16:58:35;;;;;;;29.48;18.27;;;;;;;-9.35;100.00;99989.16;15291329;19;20029;-53
2024/01/09 17:04:00;;;;;;;29.50;17.00;;;;;;;-9.42;100.00;99979.59;15280103;19;20493;-53
2024/01/09 17:09:24;;;;;;;29.55;18.35;;;;;;;-9.51;100.00;99978.69;15292099;19;20014;-55
2024/01/09 17:14:52;;;;;;;27.33;16.77;;;;;;;-9.61;100.00;99977.81;15293766;19;20081;-52
2024/01/09 17:20:18;;;;;;;27.48;16.80;;;;;;;-9.68;100.00;99990.84;15286533;19;20011;-52
2024/01/09 17:25:49;;;;;;;28.85;17.90;;;;;;;-9.73;100.00;99997.75;15287727;19;20105;-50
2024/01/09 17:31:17;;;;;;;28.03;17.50;;;;;;;-9.79;100.00;99985.56;15289048;19;20026;-52
2024/01/09 17:36:41;;;;;;;28.63;17.60;;;;;;;-9.83;100.00;99984.69;15286304;19;20650;-49
2024/01/09 17:42:10;;;;;;;31.57;19.60;;;;;;;-9.88;100.00;99989.03;15287076;19;20020;-49
2024/01/09 17:47:37;;;;;;;36.53;20.67;;;;;;;-9.91;100.00;99979.44;15291105;19;20596;-51
2024/01/09 17:53:03;;;;;;;33.63;19.53;;;;;;;-9.93;100.00;99975.09;15286835;19;20434;-54
2024/01/09 17:58:28;;;;;;;30.80;19.27;;;;;;;-9.99;100.00;99962.91;15288145;19;20480;-50
2024/01/09 18:03:56;;;;;;;30.97;19.63;;;;;;;-10.02;100.00;99973.31;15286238;19;20021;-56
2024/01/09 18:09:26;;;;;;;31.30;17.07;;;;;;;-10.12;100.00;99968.94;15280031;19;20394;-55
2024/01/09 18:14:51;;;;;;;29.63;17.88;;;;;;;-10.19;100.00;99961.97;15302934;19;20043;-54
2024/01/09 18:20:20;;;;;;;32.43;19.67;;;;;;;-10.22;100.00;99963.69;15303563;19;20029;-53
2024/01/09 18:25:54;;;;;;;30.00;18.37;;;;;;;-10.27;100.00;99954.97;15299488;19;20029;-49
2024/01/09 18:31:19;;;;;;;29.67;16.37;;;;;;;-10.35;100.00;99974.94;15301584;19;20029;-51
2024/01/09 18:36:48;;;;;;;28.10;16.70;;;;;;;-10.41;100.00;99967.13;15300611;19;20086;-59
2024/01/09 18:42:13;;;;;;;31.23;19.00;;;;;;;-10.47;100.00;99964.47;15298467;19;20011;-53
2024/01/09 18:47:39;;;;;;;30.83;18.73;;;;;;;-10.50;100.00;99967.06;15299387;19;20018;-56
2024/01/09 18:53:08;;;;;;;32.07;19.63;;;;;;;-10.59;100.00;99958.34;15304808;19;20446;-54
2024/01/09 18:58:34;;;;;;;35.50;21.23;;;;;;;-10.64;100.00;99951.34;15304841;19;20417;-56
2024/01/09 19:03:58;;;;;;;33.90;20.07;;;;;;;-10.66;100.00;99940.94;15297111;19;20106;-56
2024/01/09 19:09:25;;;;;;;34.37;20.77;;;;;;;-10.67;100.00;99936.59;15294198;19;20014;-51
2024/01/09 19:14:50;;;;;;;30.77;18.83;;;;;;;-10.70;100.00;99937.41;15296782;19;20025;-53
2024/01/09 19:20:18;;;;;;;30.37;19.47;;;;;;;-10.73;100.00;99924.41;15299837;19;20082;-51
2024/01/09 19:25:46;;;;;;;34.70;22.27;;;;;;;-10.74;100.00;99916.56;15297473;19;20033;-52
2024/01/09 19:31:11;;;;;;;38.23;23.20;;;;;;;-10.68;100.00;99914.00;15295452;19;20497;-50
2024/01/09 19:36:42;;;;;;;37.30;22.27;;;;;;;-10.56;100.00;99915.78;15297634;19;20479;-53
2024/01/09 19:42:09;;;;;;;30.43;20.20;;;;;;;-10.49;100.00;99916.69;15290361;19;20021;-49
2024/01/09 19:47:33;;;;;;;32.50;20.73;;;;;;;-10.54;100.00;99907.16;15293867;19;20086;-51
2024/01/09 19:52:58;;;;;;;31.97;19.13;;;;;;;-10.58;100.00;99912.34;15294298;19;20020;-49
2024/01/09 19:58:26;;;;;;;29.40;18.77;;;;;;;-10.66;100.00;99919.22;15298724;19;20018;-56
2024/01/09 20:03:51;;;;;;;31.50;20.67;;;;;;;-10.73;100.00;99913.09;15294819;19;20019;-53
2024/01/09 20:09:16;;;;;;;34.00;20.43;;;;;;;-10.80;100.00;99906.13;15289970;19;20058;-52
2024/01/09 20:14:44;;;;;;;34.27;20.37;;;;;;;-10.89;100.00;99902.63;15286262;19;20011;-49
2024/01/09 20:20:09;;;;;;;31.80;18.87;;;;;;;-10.93;100.00;99902.56;15293236;19;20021;-49
2024/01/09 20:25:40;;;;;;;33.43;19.43;;;;;;;-11.00;100.00;99904.28;15285696;19;20030;-52
2024/01/09 20:31:11;;;;;;;35.07;21.00;;;;;;;-11.10;100.00;99902.44;15291175;19;20490;-54
2024/01/09 20:36:35;;;;;;;34.00;20.53;;;;;;;-11.22;100.00;99906.72;15294276;19;20092;-56
2024/01/09 20:42:04;;;;;;;85.57;47.63;;;;;;;-11.31;100.00;99906.66;15283121;19;20024;-57
2024/01/09 20:47:25;;;;;;;41.60;23.80;;;;;;;-11.42;100.00;99897.88;15282757;19;20031;-53
2024/01/09 20:52:51;;;;;;;39.07;23.50;;;;;;;-11.51;100.00;99902.16;15286457;19;20036;-55
2024/01/09 20:58:19;;;;;;;39.87;24.47;;;;;;;-11.51;100.00;99911.69;15288543;19;20026;-52
2024/01/09 21:03:49;;;;;;;41.80;25.40;;;;;;;-11.50;100.00;99924.72;15283725;19;20025;-52
2024/01/09 21:09:15;;;;;;;41.95;23.98;;;;;;;-11.50;100.00;99914.31;15289999;19;20037;-53
2024/01/09 21:14:40;;;;;;;41.23;24.07;;;;;;;-11.54;100.00;99919.47;15286264;19;20629;-49
2024/01/09 21:20:08;;;;;;;39.07;24.30;;;;;;;-11.61;100.00;99915.94;15280270;19;20032;-53
2024/01/09 21:25:39;;;;;;;38.67;23.80;;;;;;;-11.67;100.00;99915.88;15279935;19;20039;-52
2024/01/09 21:31:05;;;;;;;38.90;23.43;;;;;;;-11.66;100.00;99908.09;15290672;19;20074;-51
2024/01/09 21:36:32;;;;;;;37.00;22.50;;;;;;;-11.59;100.00;99906.44;15292654;19;20010;-52
2024/01/09 21:41:58;;;;;;;36.43;22.03;;;;;;;-11.56;100.00;99906.44;15290239;19;20090;-52
2024/01/09 21:47:23;;;;;;;40.37;22.33;;;;;;;-11.56;100.00;99909.03;15298458;19;20519;-50
2024/01/09 21:52:50;;;;;;;38.57;24.07;;;;;;;-11.58;100.00;99900.34;15300364;19;20018;-50
2024/01/09 21:58:15;;;;;;;43.83;23.57;;;;;;;-11.61;100.00;99897.75;15302271;19;20077;-49
2024/01/09 22:03:39;;;;;;;39.70;23.57;;;;;;;-11.61;100.00;99908.16;15299318;19;20040;-48
2024/01/09 22:09:07;;;;;;;35.17;21.60;;;;;;;-11.65;100.00;99899.44;15299194;19;20464;-51
2024/01/09 22:14:31;;;;;;;34.67;21.00;;;;;;;-11.70;100.00;99905.47;15292333;19;20085;-49
2024/01/09 22:19:56;;;;;;;38.10;22.03;;;;;;;-11.77;100.00;99900.19;15302677;19;20081;-54
2024/01/09 22:25:30;;;;;;;42.27;23.20;;;;;;;-11.84;100.00;99895.81;15293800;19;20006;-50
2024/01/09 22:30:54;;;;;;;45.37;24.87;;;;;;;-11.89;100.00;99892.28;15303681;19;20023;-47
2024/01/09 22:36:19;;;;;;;43.10;24.70;;;;;;;-11.90;100.00;99900.94;15303403;19;20346;-46
2024/01/09 22:41:47;;;;;;;39.00;23.50;;;;;;;-11.87;100.00;99892.28;15302414;19;20026;-48
2024/01/09 22:47:20;;;;;;;38.43;22.17;;;;;;;-11.93;100.00;99893.97;15295617;19;20418;-48
2024/01/09 22:52:44;;;;;;;35.43;21.00;;;;;;;-11.99;100.00;99882.69;15292628;19;20027;-47
2024/01/09 22:58:12;;;;;;;36.47;21.00;;;;;;;-12.02;100.00;99885.25;15291361;19;20026;-52
2024/01/09 23:03:37;;;;;;;31.20;19.07;;;;;;;-12.04;100.00;99869.66;15294502;19;20007;-48
2024/01/09 23:09:03;;;;;;;32.23;19.90;;;;;;;-12.11;100.00;99866.13;15294260;19;20017;-48
2024/01/09 23:14:31;;;;;;;33.47;20.03;;;;;;;-12.15;100.00;99856.53;15291920;19;20025;-48
2024/01/09 23:19:56;;;;;;;35.17;20.57;;;;;;;-12.16;100.00;99852.19;15294336;19;20483;-49
2024/01/09 23:25:20;;;;;;;29.83;18.93;;;;;;;-12.23;100.00;99848.66;15288927;19;20097;-48
2024/01/09 23:30:48;;;;;;;33.67;19.30;;;;;;;-12.32;100.00;99852.91;15295301;19;20050;-48
2024/01/09 23:36:12;;;;;;;33.57;20.60;;;;;;;-12.41;100.00;99859.75;15298388;19;20460;-48
2024/01/09 23:41:37;;;;;;;31.63;18.83;;;;;;;-12.48;100.00;99852.72;15292946;19;20018;-51
2024/01/09 23:47:04;;;;;;;34.53;19.90;;;;;;;-12.58;100.00;99856.06;15282745;19;20019;-48
2024/01/09 23:52:29;;;;;;;33.40;19.80;;;;;;;-12.62;100.00;99854.28;15289204;19;20359;-50
2024/01/09 23:57:53;;;;;;;32.93;18.27;;;;;;;-12.72;100.00;99838.59;15296484;19;20642;-49
